createdAt,value
2019-01-26T00:00:45.393Z,93.84
2019-01-26T00:03:18.242Z,93.83
2019-01-26T00:05:48.976Z,93.85
2019-01-26T00:08:20.256Z,93.84
2019-01-26T00:10:51.850Z,93.83
2019-01-26T00:13:22.491Z,93.81
2019-01-26T00:15:54.372Z,93.80
2019-01-26T00:18:26.104Z,93.77
2019-01-26T00:20:56.622Z,93.75
2019-01-26T00:23:27.828Z,93.73
2019-01-26T00:25:58.520Z,93.72
2019-01-26T00:28:29.586Z,93.70
2019-01-26T00:31:00.332Z,93.69
2019-01-26T00:33:31.026Z,93.66
2019-01-26T00:36:02.009Z,93.62
2019-01-26T00:38:32.841Z,93.61
2019-01-26T00:41:03.692Z,93.59
2019-01-26T00:43:34.432Z,93.57
2019-01-26T00:46:05.475Z,93.58
2019-01-26T00:48:38.116Z,93.59
2019-01-26T00:51:10.019Z,93.59
2019-01-26T00:53:40.580Z,93.55
2019-01-26T00:56:11.464Z,93.52
2019-01-26T00:58:42.041Z,93.51
2019-01-26T01:01:12.790Z,93.46
2019-01-26T01:03:43.325Z,93.45
2019-01-26T01:06:14.061Z,93.45
2019-01-26T01:08:45.902Z,93.44
2019-01-26T01:11:16.464Z,93.42
2019-01-26T01:13:47.134Z,93.42
2019-01-26T01:16:17.615Z,93.40
2019-01-26T01:18:48.368Z,93.36
2019-01-26T01:21:19.229Z,93.31
2019-01-26T01:23:49.568Z,93.29
2019-01-26T01:26:20.178Z,93.27
2019-01-26T01:28:50.972Z,93.26
2019-01-26T01:31:22.186Z,93.27
2019-01-26T01:33:53.920Z,93.26
2019-01-26T01:36:24.714Z,93.26
2019-01-26T01:38:55.237Z,93.23
2019-01-26T01:41:26.159Z,93.24
2019-01-26T01:43:56.752Z,93.22
2019-01-26T01:46:28.859Z,93.28
2019-01-26T01:49:00.778Z,93.25
2019-01-26T01:51:31.399Z,93.25
2019-01-26T01:54:02.308Z,93.24
2019-01-26T01:56:33.048Z,93.25
2019-01-26T01:59:04.796Z,93.27
2019-01-26T02:01:35.433Z,93.28
2019-01-26T02:04:07.635Z,93.27
2019-01-26T02:06:38.358Z,93.21
2019-01-26T02:09:10.425Z,93.24
2019-01-26T02:11:41.210Z,93.23
2019-01-26T02:14:11.800Z,93.22
2019-01-26T02:16:50.077Z,93.21
2019-01-26T02:19:16.416Z,93.21
2019-01-26T02:21:47.200Z,93.21
2019-01-26T02:24:17.765Z,93.21
2019-01-26T02:26:48.121Z,93.22
2019-01-26T02:29:19.109Z,93.22
2019-01-26T02:31:51.338Z,93.23
2019-01-26T02:34:23.004Z,93.23
2019-01-26T02:36:53.733Z,93.21
2019-01-26T02:39:24.449Z,93.18
2019-01-26T02:41:54.883Z,93.14
2019-01-26T02:44:25.560Z,93.13
2019-01-26T02:46:58.123Z,93.12
2019-01-26T02:49:28.567Z,93.06
2019-01-26T02:51:59.139Z,93.02
2019-01-26T02:54:29.701Z,92.98
2019-01-26T02:57:03.134Z,93.00
2019-01-26T02:59:33.723Z,92.94
2019-01-26T03:02:05.720Z,92.93
2019-01-26T03:04:36.241Z,92.91
2019-01-26T03:07:06.834Z,92.90
2019-01-26T03:09:37.550Z,92.88
2019-01-26T03:12:08.219Z,92.83
2019-01-26T03:14:38.866Z,92.79
2019-01-26T03:17:10.031Z,92.77
2019-01-26T03:19:40.750Z,92.75
2019-01-26T03:22:11.879Z,92.72
2019-01-26T03:24:43.716Z,92.66
2019-01-26T03:27:14.270Z,92.62
2019-01-26T03:29:46.395Z,92.57
2019-01-26T03:32:17.151Z,92.49
2019-01-26T03:34:48.853Z,92.47
2019-01-26T03:37:21.578Z,92.44
2019-01-26T03:39:52.231Z,92.38
2019-01-26T03:42:22.967Z,92.34
2019-01-26T03:44:53.659Z,92.31
2019-01-26T03:47:24.262Z,92.23
2019-01-26T03:49:55.059Z,92.18
2019-01-26T03:52:27.108Z,92.11
2019-01-26T03:54:57.851Z,92.09
2019-01-26T03:57:28.394Z,92.07
2019-01-26T03:59:59.014Z,92.08
2019-01-26T04:02:29.622Z,92.00
2019-01-26T04:05:00.477Z,91.92
2019-01-26T04:07:32.007Z,91.79
2019-01-26T04:10:03.695Z,91.72
2019-01-26T04:12:34.331Z,91.68
2019-01-26T04:15:05.239Z,91.67
2019-01-26T04:17:35.894Z,91.67
2019-01-26T04:20:07.617Z,91.64
2019-01-26T04:22:38.556Z,91.53
2019-01-26T04:25:09.287Z,91.51
2019-01-26T04:27:40.009Z,91.45
2019-01-26T04:30:13.259Z,91.40
2019-01-26T04:32:43.820Z,91.29
2019-01-26T04:35:17.119Z,91.26
2019-01-26T04:37:47.848Z,91.25
2019-01-26T04:40:19.764Z,91.23
2019-01-26T04:42:50.321Z,91.18
2019-01-26T04:45:22.914Z,91.15
2019-01-26T04:47:53.745Z,91.09
2019-01-26T04:50:24.330Z,91.05
2019-01-26T04:52:54.985Z,90.97
2019-01-26T04:55:27.485Z,90.92
2019-01-26T04:57:58.145Z,90.93
2019-01-26T05:00:29.964Z,90.98
2019-01-26T05:03:00.568Z,90.98
2019-01-26T05:05:31.316Z,90.94
2019-01-26T05:08:03.022Z,90.88
2019-01-26T05:10:33.770Z,90.89
2019-01-26T05:13:04.527Z,90.91
2019-01-26T05:15:35.217Z,90.87
2019-01-26T05:18:05.898Z,90.83
2019-01-26T05:20:36.297Z,90.86
2019-01-26T05:23:07.016Z,90.82
2019-01-26T05:25:37.645Z,90.79
2019-01-26T05:28:08.173Z,90.76
2019-01-26T05:30:38.813Z,90.65
2019-01-26T05:33:09.437Z,90.66
2019-01-26T05:35:41.133Z,90.68
2019-01-26T05:38:11.837Z,90.70
2019-01-26T05:40:42.824Z,90.63
2019-01-26T05:43:14.572Z,90.61
2019-01-26T05:45:45.168Z,90.62
2019-01-26T05:48:15.730Z,90.60
2019-01-26T05:50:46.436Z,90.68
2019-01-26T05:53:17.124Z,90.74
2019-01-26T05:55:47.715Z,90.75
2019-01-26T05:58:18.362Z,90.80
2019-01-26T06:00:49.008Z,90.79
2019-01-26T06:03:19.548Z,90.80
2019-01-26T06:05:50.584Z,90.84
2019-01-26T06:08:22.144Z,90.79
2019-01-26T06:10:52.735Z,90.72
2019-01-26T06:13:24.493Z,90.63
2019-01-26T06:15:55.198Z,90.52
2019-01-26T06:18:26.134Z,90.51
2019-01-26T06:20:59.135Z,90.49
2019-01-26T06:23:29.787Z,90.46
2019-01-26T06:26:00.558Z,90.49
2019-01-26T06:28:31.128Z,90.48
2019-01-26T06:31:02.042Z,90.42
2019-01-26T06:33:32.795Z,90.29
2019-01-26T06:36:03.410Z,89.88
2019-01-26T06:38:35.717Z,89.75
2019-01-26T06:41:07.417Z,89.56
2019-01-26T06:43:38.114Z,89.57
2019-01-26T06:46:08.930Z,89.32
2019-01-26T06:48:40.851Z,89.23
2019-01-26T06:51:11.507Z,89.35
2019-01-26T06:53:41.928Z,89.46
2019-01-26T06:56:12.590Z,89.61
2019-01-26T06:58:44.482Z,89.68
2019-01-26T07:01:16.654Z,89.80
2019-01-26T07:03:48.632Z,89.90
2019-01-26T07:06:23.090Z,89.94
2019-01-26T07:08:53.662Z,90.03
2019-01-26T07:11:24.314Z,90.19
2019-01-26T07:13:55.067Z,90.27
2019-01-26T07:16:26.580Z,90.38
2019-01-26T07:18:58.588Z,90.44
2019-01-26T07:21:30.493Z,90.46
2019-01-26T07:24:01.077Z,90.47
2019-01-26T07:26:31.622Z,90.54
2019-01-26T07:29:02.391Z,90.58
2019-01-26T07:31:32.856Z,90.53
2019-01-26T07:34:03.580Z,90.44
2019-01-26T07:36:34.463Z,90.38
2019-01-26T07:39:06.678Z,90.31
2019-01-26T07:41:38.007Z,90.26
2019-01-26T07:44:08.917Z,90.06
2019-01-26T07:46:39.447Z,89.93
2019-01-26T07:49:10.087Z,89.85
2019-01-26T07:51:40.878Z,89.65
2019-01-26T07:54:11.556Z,89.19
2019-01-26T07:56:42.755Z,88.74
2019-01-26T07:59:13.494Z,88.39
2019-01-26T08:01:44.169Z,88.02
2019-01-26T08:04:14.893Z,87.92
2019-01-26T08:06:46.722Z,87.51
2019-01-26T08:09:18.650Z,87.27
2019-01-26T08:11:49.287Z,87.33
2019-01-26T08:14:21.070Z,87.31
2019-01-26T08:16:51.792Z,86.60
2019-01-26T08:19:22.670Z,86.30
2019-01-26T08:21:53.414Z,86.51
2019-01-26T08:24:24.105Z,86.59
2019-01-26T08:26:55.274Z,86.78
2019-01-26T08:29:25.979Z,86.87
2019-01-26T08:31:56.731Z,86.91
2019-01-26T08:34:27.493Z,87.16
2019-01-26T08:36:57.976Z,87.00
2019-01-26T08:39:28.622Z,87.00
2019-01-26T08:41:59.344Z,86.88
2019-01-26T08:44:30.394Z,86.64
2019-01-26T08:47:00.979Z,86.73
2019-01-26T08:49:31.494Z,86.63
2019-01-26T08:52:01.958Z,86.51
2019-01-26T08:54:32.624Z,86.40
2019-01-26T08:57:03.460Z,86.71
2019-01-26T08:59:33.963Z,86.57
2019-01-26T09:02:25.554Z,86.39
2019-01-26T09:04:56.575Z,85.99
2019-01-26T09:07:27.297Z,85.49
2019-01-26T09:09:58.503Z,85.37
2019-01-26T09:12:32.776Z,85.14
2019-01-26T09:15:03.326Z,85.09
2019-01-26T09:17:33.980Z,84.93
2019-01-26T09:20:08.248Z,84.67
2019-01-26T09:22:40.232Z,84.35
2019-01-26T09:25:11.149Z,84.29
2019-01-26T09:27:42.387Z,84.49
2019-01-26T09:30:13.615Z,85.29
2019-01-26T09:32:44.336Z,85.49
2019-01-26T09:35:15.432Z,85.88
2019-01-26T09:37:47.184Z,85.84
2019-01-26T09:40:19.051Z,86.03
2019-01-26T09:42:50.168Z,86.26
2019-01-26T09:45:21.108Z,86.23
2019-01-26T09:47:52.765Z,86.50
2019-01-26T09:50:23.539Z,86.38
2019-01-26T09:52:54.239Z,86.38
2019-01-26T09:55:25.059Z,86.25
2019-01-26T09:57:56.115Z,86.16
2019-01-26T10:00:37.442Z,86.41
2019-01-26T10:03:08.061Z,86.36
2019-01-26T10:05:39.725Z,86.60
2019-01-26T10:08:10.554Z,86.57
2019-01-26T10:10:41.244Z,86.40
2019-01-26T10:13:13.397Z,86.30
2019-01-26T10:15:44.271Z,86.61
2019-01-26T10:18:15.217Z,86.62
2019-01-26T10:20:45.871Z,86.49
2019-01-26T10:23:17.014Z,86.71
2019-01-26T10:25:48.835Z,86.57
2019-01-26T10:28:19.864Z,86.55
2019-01-26T10:31:01.197Z,86.42
2019-01-26T10:33:33.277Z,86.28
2019-01-26T10:36:22.852Z,86.15
2019-01-26T10:39:05.782Z,86.26
2019-01-26T10:41:58.437Z,86.57
2019-01-26T10:44:30.896Z,86.67
2019-01-26T10:47:03.158Z,86.41
2019-01-26T10:49:33.680Z,86.28
2019-01-26T10:52:05.148Z,86.25
2019-01-26T10:54:39.775Z,85.91
2019-01-26T10:57:12.298Z,85.59
2019-01-26T10:59:42.968Z,85.56
2019-01-26T11:02:14.424Z,85.60
2019-01-26T11:04:46.350Z,85.79
2019-01-26T11:07:16.998Z,85.69
2019-01-26T11:09:47.814Z,85.74
2019-01-26T11:12:19.174Z,86.03
2019-01-26T11:14:49.775Z,86.19
2019-01-26T11:17:20.678Z,86.23
2019-01-26T11:19:51.799Z,86.19
2019-01-26T11:22:22.546Z,85.97
2019-01-26T11:24:53.184Z,85.82
2019-01-26T11:27:23.973Z,85.75
2019-01-26T11:29:54.578Z,85.66
2019-01-26T11:32:25.274Z,85.55
2019-01-26T11:34:56.435Z,85.46
2019-01-26T11:37:27.189Z,85.52
2019-01-26T11:40:04.400Z,85.15
2019-01-26T11:42:35.051Z,84.93
2019-01-26T11:45:24.522Z,85.02
2019-01-26T11:47:56.114Z,84.95
2019-01-26T11:50:32.882Z,84.48
2019-01-26T11:53:03.434Z,84.37
2019-01-26T11:58:30.369Z,84.69
2019-01-26T12:01:19.771Z,84.48
2019-01-26T12:04:06.817Z,84.76
2019-01-26T12:06:43.712Z,84.78
2019-01-26T12:09:19.087Z,84.99
2019-01-26T12:11:50.338Z,84.58
2019-01-26T12:14:21.231Z,84.19
2019-01-26T12:16:54.761Z,83.94
2019-01-26T12:19:25.048Z,84.07
2019-01-26T12:21:56.731Z,84.08
2019-01-26T12:24:27.477Z,83.90
2019-01-26T12:27:00.261Z,83.43
2019-01-26T12:29:30.739Z,83.29
2019-01-26T12:32:02.619Z,83.10
2019-01-26T12:34:33.155Z,82.99
2019-01-26T12:37:05.068Z,82.64
2019-01-26T12:39:35.981Z,82.57
2019-01-26T12:42:06.765Z,82.95
2019-01-26T12:44:37.574Z,83.05
2019-01-26T12:47:08.076Z,82.94
2019-01-26T12:49:39.632Z,82.73
2019-01-26T12:52:10.723Z,82.69
2019-01-26T12:54:41.193Z,82.63
2019-01-26T12:57:11.491Z,82.57
2019-01-26T12:59:42.420Z,82.58
2019-01-26T13:02:12.865Z,82.61
2019-01-26T13:04:43.231Z,82.71
2019-01-26T13:07:13.565Z,82.54
2019-01-26T13:09:45.565Z,81.84
2019-01-26T13:12:16.133Z,81.92
2019-01-26T13:14:46.457Z,82.34
2019-01-26T13:17:17.082Z,82.77
2019-01-26T13:19:47.358Z,83.10
2019-01-26T13:22:17.631Z,83.26
2019-01-26T13:24:48.221Z,83.73
2019-01-26T13:27:18.605Z,83.96
2019-01-26T13:29:49.111Z,84.26
2019-01-26T13:32:27.549Z,84.15
2019-01-26T13:34:58.400Z,84.05
2019-01-26T13:37:28.941Z,83.85
2019-01-26T13:40:01.460Z,83.83
2019-01-26T13:42:31.910Z,83.99
2019-01-26T13:45:05.285Z,84.10
2019-01-26T13:47:37.946Z,83.88
2019-01-26T13:50:10.742Z,83.26
2019-01-26T13:52:48.517Z,83.41
2019-01-26T13:55:24.047Z,83.41
2019-01-26T13:57:55.661Z,83.24
2019-01-26T14:00:28.536Z,83.28
2019-01-26T14:02:58.865Z,83.52
2019-01-26T14:05:29.277Z,83.52
2019-01-26T14:07:59.755Z,83.99
2019-01-26T14:10:30.590Z,83.84
2019-01-26T14:13:02.166Z,83.79
2019-01-26T14:15:32.674Z,83.26
2019-01-26T14:18:04.939Z,83.06
2019-01-26T14:20:35.337Z,83.17
2019-01-26T14:23:05.661Z,83.27
2019-01-26T14:25:36.043Z,83.45
2019-01-26T14:28:06.476Z,83.25
2019-01-26T14:30:39.705Z,83.51
2019-01-26T14:33:10.109Z,83.59
2019-01-26T14:35:40.526Z,83.48
2019-01-26T14:38:10.918Z,83.50
2019-01-26T14:40:41.267Z,83.56
2019-01-26T14:43:11.678Z,83.48
2019-01-26T14:45:41.957Z,83.47
2019-01-26T14:48:13.109Z,83.88
2019-01-26T14:50:43.744Z,83.96
2019-01-26T14:53:14.593Z,83.86
2019-01-26T14:55:45.219Z,83.93
2019-01-26T14:58:15.916Z,83.69
2019-01-26T15:00:46.413Z,83.83
2019-01-26T15:03:16.859Z,83.98
2019-01-26T15:05:47.610Z,83.78
2019-01-26T15:08:18.187Z,83.58
2019-01-26T15:10:48.814Z,83.64
2019-01-26T15:13:19.397Z,84.00
2019-01-26T15:15:50.079Z,83.58
2019-01-26T15:18:21.103Z,83.42
2019-01-26T15:20:51.921Z,83.14
2019-01-26T15:23:22.249Z,82.80
2019-01-26T15:25:52.710Z,82.99
2019-01-26T15:28:23.148Z,82.85
2019-01-26T15:30:53.992Z,82.37
2019-01-26T15:33:24.466Z,82.15
2019-01-26T15:35:54.950Z,82.20
2019-01-26T15:38:25.584Z,82.45
2019-01-26T15:40:55.982Z,82.23
2019-01-26T15:43:26.393Z,82.03
2019-01-26T15:45:56.732Z,82.00
2019-01-26T15:48:27.067Z,81.30
2019-01-26T15:50:57.418Z,81.46
2019-01-26T15:53:27.894Z,81.47
2019-01-26T15:55:58.220Z,81.15
2019-01-26T15:58:28.607Z,81.33
2019-01-26T16:00:59.328Z,81.63
2019-01-26T16:03:29.687Z,81.57
2019-01-26T16:06:00.155Z,81.71
2019-01-26T16:08:30.475Z,81.50
2019-01-26T16:11:00.859Z,81.67
2019-01-26T16:13:31.335Z,81.72
2019-01-26T16:16:01.769Z,81.44
2019-01-26T16:18:36.717Z,81.35
2019-01-26T16:21:07.435Z,81.24
2019-01-26T16:23:37.608Z,81.31
2019-01-26T16:26:08.237Z,81.35
2019-01-26T16:28:38.232Z,81.37
2019-01-26T16:31:08.404Z,81.42
2019-01-26T16:33:38.591Z,81.18
2019-01-26T16:36:08.788Z,81.01
2019-01-26T16:38:38.915Z,80.62
2019-01-26T16:41:09.194Z,80.12
2019-01-26T16:43:39.294Z,79.55
2019-01-26T16:46:09.536Z,79.12
2019-01-26T16:48:39.730Z,78.71
2019-01-26T16:51:10.199Z,78.69
2019-01-26T16:53:40.702Z,78.40
2019-01-26T16:56:11.486Z,78.39
2019-01-26T16:58:42.371Z,78.58
2019-01-26T17:01:12.874Z,78.39
2019-01-26T17:03:44.438Z,78.20
2019-01-26T17:06:15.018Z,77.67
2019-01-26T17:08:45.767Z,78.14
2019-01-26T17:11:16.204Z,78.03
2019-01-26T17:13:46.543Z,77.95
2019-01-26T17:16:16.963Z,77.63
2019-01-26T17:18:47.605Z,77.70
2019-01-26T17:21:17.767Z,77.59
2019-01-26T17:23:48.211Z,77.44
2019-01-26T17:26:18.236Z,77.40
2019-01-26T17:28:48.401Z,77.48
2019-01-26T17:31:19.056Z,77.75
2019-01-26T17:33:49.437Z,77.56
2019-01-26T17:36:19.878Z,77.26
2019-01-26T17:38:50.335Z,77.62
2019-01-26T17:41:20.913Z,77.60
2019-01-26T17:43:51.698Z,77.78
2019-01-26T17:46:21.849Z,77.48
2019-01-26T17:48:53.895Z,77.43
2019-01-26T17:51:24.354Z,78.12
2019-01-26T17:53:54.731Z,77.42
2019-01-26T17:56:27.057Z,77.43
2019-01-26T17:58:57.488Z,77.45
2019-01-26T18:01:28.423Z,77.47
2019-01-26T18:03:59.967Z,77.22
2019-01-26T18:06:30.418Z,77.24
2019-01-26T18:09:00.930Z,77.80
2019-01-26T18:11:32.768Z,77.79
2019-01-26T18:14:03.234Z,77.38
2019-01-26T18:16:33.568Z,77.71
2019-01-26T18:19:04.106Z,78.23
2019-01-26T18:21:34.700Z,78.19
2019-01-26T18:24:05.336Z,78.36
2019-01-26T18:26:36.111Z,78.08
2019-01-26T18:29:06.579Z,78.11
2019-01-26T18:31:36.934Z,78.29
2019-01-26T18:34:07.460Z,78.22
2019-01-26T18:36:37.861Z,78.56
2019-01-26T18:39:10.182Z,78.77
2019-01-26T18:41:40.637Z,79.04
2019-01-26T18:44:11.121Z,79.10
2019-01-26T18:46:41.521Z,79.18
2019-01-26T18:49:12.159Z,79.27
2019-01-26T18:51:46.934Z,79.42
2019-01-26T18:54:17.631Z,79.94
2019-01-26T18:56:49.686Z,80.24
2019-01-26T18:59:24.479Z,80.76
2019-01-26T19:01:54.963Z,80.58
2019-01-26T19:04:29.591Z,80.52
2019-01-26T19:07:00.319Z,81.01
2019-01-26T19:09:30.941Z,81.05
2019-01-26T19:12:01.867Z,81.04
2019-01-26T19:14:32.920Z,81.06
2019-01-26T19:17:03.414Z,81.38
2019-01-26T19:19:33.952Z,81.28
2019-01-26T19:22:04.468Z,81.49
2019-01-26T19:24:36.744Z,81.61
2019-01-26T19:27:08.313Z,81.72
2019-01-26T19:29:39.118Z,81.51
2019-01-26T19:32:09.594Z,81.59
2019-01-26T19:34:40.084Z,81.59
2019-01-26T19:37:10.713Z,81.68
2019-01-26T19:39:41.180Z,81.83
2019-01-26T19:42:11.810Z,81.84
2019-01-26T19:44:42.209Z,81.74
2019-01-26T19:47:12.671Z,81.89
2019-01-26T19:49:43.173Z,81.86
2019-01-26T19:52:13.635Z,81.79
2019-01-26T19:54:44.053Z,81.39
2019-01-26T19:57:14.725Z,81.29
2019-01-26T19:59:45.117Z,81.44
2019-01-26T20:02:15.766Z,81.25
2019-01-26T20:04:46.338Z,81.17
2019-01-26T20:07:16.771Z,81.17
2019-01-26T20:09:47.825Z,81.22
2019-01-26T20:12:19.710Z,81.13
2019-01-26T20:14:50.022Z,81.03
2019-01-26T20:17:20.237Z,81.07
2019-01-26T20:19:50.687Z,81.31
2019-01-26T20:22:21.330Z,81.39
2019-01-26T20:24:51.789Z,81.26
2019-01-26T20:27:22.203Z,81.22
2019-01-26T20:29:52.625Z,81.44
2019-01-26T20:32:23.090Z,81.60
2019-01-26T20:34:53.488Z,81.42
2019-01-26T20:37:23.824Z,81.46
2019-01-26T20:39:54.047Z,81.23
2019-01-26T20:42:24.531Z,81.19
2019-01-26T20:44:54.953Z,81.05
2019-01-26T20:47:25.433Z,80.99
2019-01-26T20:49:55.796Z,80.93
2019-01-26T20:52:26.278Z,81.05
2019-01-26T20:54:56.528Z,80.84
2019-01-26T20:57:27.163Z,80.83
2019-01-26T20:59:57.556Z,80.60
2019-01-26T21:02:27.976Z,80.47
2019-01-26T21:04:58.478Z,80.36
2019-01-26T21:07:30.992Z,80.32
2019-01-26T21:10:01.254Z,80.51
2019-01-26T21:12:31.720Z,80.49
2019-01-26T21:15:04.729Z,80.42
2019-01-26T21:17:34.461Z,80.65
2019-01-26T21:20:06.546Z,80.58
2019-01-26T21:22:37.074Z,80.00
2019-01-26T21:25:08.595Z,79.41
2019-01-26T21:27:39.087Z,79.15
2019-01-26T21:30:13.466Z,78.55
2019-01-26T21:32:43.936Z,78.04
2019-01-26T21:35:14.416Z,77.59
2019-01-26T21:37:46.358Z,77.31
2019-01-26T21:40:19.931Z,77.03
2019-01-26T21:42:50.316Z,76.99
2019-01-26T21:45:21.165Z,77.34
2019-01-26T21:47:52.025Z,76.89
2019-01-26T21:50:24.351Z,77.05
2019-01-26T21:52:55.743Z,77.17
2019-01-26T21:55:28.398Z,77.04
2019-01-26T21:57:59.007Z,76.51
2019-01-26T22:00:34.449Z,76.55
2019-01-26T22:03:06.306Z,76.75
2019-01-26T22:05:36.870Z,76.76
2019-01-26T22:08:07.349Z,76.44
2019-01-26T22:10:38.873Z,76.53
2019-01-26T22:13:10.181Z,76.66
2019-01-26T22:15:40.611Z,76.67
2019-01-26T22:18:12.283Z,76.50
2019-01-26T22:20:42.600Z,76.43
2019-01-26T22:23:13.675Z,76.64
2019-01-26T22:25:44.144Z,76.97
2019-01-26T22:28:14.675Z,76.87
2019-01-26T22:30:45.425Z,77.04
2019-01-26T22:33:15.884Z,77.01
2019-01-26T22:35:46.295Z,77.16
2019-01-26T22:38:18.123Z,77.04
2019-01-26T22:40:48.663Z,77.56
2019-01-26T22:43:19.084Z,77.90
2019-01-26T22:45:49.590Z,77.41
2019-01-26T22:48:20.338Z,77.77
2019-01-26T22:50:50.994Z,77.84
2019-01-26T22:53:21.622Z,78.24
2019-01-26T22:55:52.156Z,78.37
2019-01-26T22:58:23.219Z,78.78
2019-01-26T23:01:30.529Z,79.08
2019-01-26T23:04:27.035Z,78.95
2019-01-26T23:07:29.607Z,78.58
2019-01-26T23:10:09.886Z,78.92
2019-01-26T23:12:56.592Z,78.73
2019-01-26T23:16:04.202Z,78.81
2019-01-26T23:18:58.062Z,79.10
2019-01-26T23:22:08.728Z,79.09
2019-01-26T23:25:24.445Z,79.23
2019-01-26T23:28:35.510Z,79.71
2019-01-26T23:31:14.866Z,79.95
2019-01-26T23:33:46.547Z,79.28
2019-01-26T23:36:17.706Z,79.41
2019-01-26T23:38:48.203Z,79.44
2019-01-26T23:41:18.612Z,79.28
2019-01-26T23:43:48.931Z,79.39
2019-01-26T23:46:19.563Z,79.12
2019-01-26T23:48:49.915Z,79.11
2019-01-26T23:51:20.515Z,78.92
2019-01-26T23:53:51.193Z,78.70
2019-01-26T23:56:21.639Z,78.52
2019-01-26T23:58:52.308Z,78.31
